sensor_id;sensor_type;location;lat;lon;timestamp;P1;durP1;ratioP1;P2;durP2;ratioP2
62616;SDS011;62539;51.190;6.808;2022-10-23T00:00:35;4.28;;;2.42;;
62616;SDS011;62539;51.190;6.808;2022-10-23T00:03:02;4.22;;;2.78;;
62616;SDS011;62539;51.190;6.808;2022-10-23T00:05:29;4.25;;;2.53;;
62616;SDS011;62539;51.190;6.808;2022-10-23T00:07:56;3.17;;;2.22;;
62616;SDS011;62539;51.190;6.808;2022-10-23T00:10:24;7.10;;;2.30;;
62616;SDS011;62539;51.190;6.808;2022-10-23T00:12:51;8.60;;;2.75;;
62616;SDS011;62539;51.190;6.808;2022-10-23T00:15:19;6.05;;;2.22;;
62616;SDS011;62539;51.190;6.808;2022-10-23T00:17:46;4.22;;;1.90;;
62616;SDS011;62539;51.190;6.808;2022-10-23T00:20:12;3.88;;;2.17;;
62616;SDS011;62539;51.190;6.808;2022-10-23T00:22:40;4.18;;;2.00;;
62616;SDS011;62539;51.190;6.808;2022-10-23T00:25:06;5.95;;;2.40;;
62616;SDS011;62539;51.190;6.808;2022-10-23T00:27:33;4.05;;;2.13;;
62616;SDS011;62539;51.190;6.808;2022-10-23T00:29:59;6.70;;;2.17;;
62616;SDS011;62539;51.190;6.808;2022-10-23T00:32:25;6.25;;;2.10;;
62616;SDS011;62539;51.190;6.808;2022-10-23T00:34:52;6.10;;;2.00;;
62616;SDS011;62539;51.190;6.808;2022-10-23T00:37:17;2.90;;;2.05;;
62616;SDS011;62539;51.190;6.808;2022-10-23T00:39:43;8.25;;;2.63;;
62616;SDS011;62539;51.190;6.808;2022-10-23T00:42:09;3.63;;;2.03;;
62616;SDS011;62539;51.190;6.808;2022-10-23T00:47:06;4.93;;;1.93;;
62616;SDS011;62539;51.190;6.808;2022-10-23T00:49:31;5.18;;;2.30;;
62616;SDS011;62539;51.190;6.808;2022-10-23T00:52:01;4.53;;;2.08;;
62616;SDS011;62539;51.190;6.808;2022-10-23T00:54:32;2.78;;;1.95;;
62616;SDS011;62539;51.190;6.808;2022-10-23T00:57:03;5.72;;;2.08;;
62616;SDS011;62539;51.190;6.808;2022-10-23T00:59:35;4.20;;;2.00;;
62616;SDS011;62539;51.190;6.808;2022-10-23T01:02:00;4.13;;;1.98;;
62616;SDS011;62539;51.190;6.808;2022-10-23T01:04:26;3.00;;;1.80;;
62616;SDS011;62539;51.190;6.808;2022-10-23T01:09:38;3.63;;;2.10;;
62616;SDS011;62539;51.190;6.808;2022-10-23T01:12:22;4.97;;;2.28;;
62616;SDS011;62539;51.190;6.808;2022-10-23T01:20:31;7.55;;;2.20;;
62616;SDS011;62539;51.190;6.808;2022-10-23T01:23:16;3.53;;;2.03;;
62616;SDS011;62539;51.190;6.808;2022-10-23T01:32:32;3.25;;;2.20;;
62616;SDS011;62539;51.190;6.808;2022-10-23T01:35:07;3.90;;;1.98;;
62616;SDS011;62539;51.190;6.808;2022-10-23T01:37:48;5.82;;;2.00;;
62616;SDS011;62539;51.190;6.808;2022-10-23T01:40:28;3.42;;;1.95;;
62616;SDS011;62539;51.190;6.808;2022-10-23T01:43:25;2.95;;;1.90;;
62616;SDS011;62539;51.190;6.808;2022-10-23T01:46:00;4.03;;;2.13;;
62616;SDS011;62539;51.190;6.808;2022-10-23T01:48:32;5.22;;;1.80;;
62616;SDS011;62539;51.190;6.808;2022-10-23T01:51:02;4.88;;;1.88;;
62616;SDS011;62539;51.190;6.808;2022-10-23T01:53:35;3.53;;;1.60;;
62616;SDS011;62539;51.190;6.808;2022-10-23T01:56:07;2.67;;;1.63;;
62616;SDS011;62539;51.190;6.808;2022-10-23T01:58:41;3.80;;;1.73;;
62616;SDS011;62539;51.190;6.808;2022-10-23T02:01:11;2.70;;;1.88;;
62616;SDS011;62539;51.190;6.808;2022-10-23T02:03:42;4.03;;;2.15;;
62616;SDS011;62539;51.190;6.808;2022-10-23T02:06:09;4.43;;;2.25;;
62616;SDS011;62539;51.190;6.808;2022-10-23T02:08:35;4.10;;;1.90;;
62616;SDS011;62539;51.190;6.808;2022-10-23T02:11:06;3.38;;;2.00;;
62616;SDS011;62539;51.190;6.808;2022-10-23T02:25:10;3.28;;;2.00;;
62616;SDS011;62539;51.190;6.808;2022-10-23T02:27:44;4.30;;;1.90;;
62616;SDS011;62539;51.190;6.808;2022-10-23T02:30:17;2.83;;;1.80;;
62616;SDS011;62539;51.190;6.808;2022-10-23T02:32:45;5.10;;;2.03;;
62616;SDS011;62539;51.190;6.808;2022-10-23T02:35:14;3.63;;;1.77;;
62616;SDS011;62539;51.190;6.808;2022-10-23T02:37:51;2.35;;;1.48;;
62616;SDS011;62539;51.190;6.808;2022-10-23T02:40:34;2.67;;;1.80;;
62616;SDS011;62539;51.190;6.808;2022-10-23T02:43:17;3.35;;;2.25;;
62616;SDS011;62539;51.190;6.808;2022-10-23T02:46:04;2.58;;;1.85;;
62616;SDS011;62539;51.190;6.808;2022-10-23T02:48:54;3.25;;;1.80;;
62616;SDS011;62539;51.190;6.808;2022-10-23T03:00:56;3.03;;;1.80;;
62616;SDS011;62539;51.190;6.808;2022-10-23T03:03:33;3.30;;;2.05;;
62616;SDS011;62539;51.190;6.808;2022-10-23T03:06:06;3.47;;;1.80;;
62616;SDS011;62539;51.190;6.808;2022-10-23T03:11:12;2.20;;;1.35;;
62616;SDS011;62539;51.190;6.808;2022-10-23T03:13:38;2.67;;;1.80;;
62616;SDS011;62539;51.190;6.808;2022-10-23T03:16:03;1.90;;;1.50;;
62616;SDS011;62539;51.190;6.808;2022-10-23T03:18:28;2.58;;;1.60;;
62616;SDS011;62539;51.190;6.808;2022-10-23T03:20:55;3.53;;;1.80;;
62616;SDS011;62539;51.190;6.808;2022-10-23T03:23:20;2.65;;;1.67;;
62616;SDS011;62539;51.190;6.808;2022-10-23T03:25:46;3.45;;;1.83;;
62616;SDS011;62539;51.190;6.808;2022-10-23T03:28:11;2.42;;;1.65;;
62616;SDS011;62539;51.190;6.808;2022-10-23T03:30:37;3.90;;;1.58;;
62616;SDS011;62539;51.190;6.808;2022-10-23T03:33:02;5.25;;;1.35;;
62616;SDS011;62539;51.190;6.808;2022-10-23T03:35:28;3.03;;;1.65;;
62616;SDS011;62539;51.190;6.808;2022-10-23T03:37:53;2.95;;;1.90;;
62616;SDS011;62539;51.190;6.808;2022-10-23T03:40:19;2.33;;;1.70;;
62616;SDS011;62539;51.190;6.808;2022-10-23T03:42:44;2.83;;;1.50;;
62616;SDS011;62539;51.190;6.808;2022-10-23T03:45:10;1.48;;;1.38;;
62616;SDS011;62539;51.190;6.808;2022-10-23T03:47:35;3.17;;;1.60;;
62616;SDS011;62539;51.190;6.808;2022-10-23T03:50:05;4.05;;;1.50;;
62616;SDS011;62539;51.190;6.808;2022-10-23T03:52:32;2.85;;;1.90;;
62616;SDS011;62539;51.190;6.808;2022-10-23T03:54:58;1.98;;;1.73;;
62616;SDS011;62539;51.190;6.808;2022-10-23T03:57:23;2.50;;;1.48;;
62616;SDS011;62539;51.190;6.808;2022-10-23T03:59:49;3.92;;;1.83;;
62616;SDS011;62539;51.190;6.808;2022-10-23T04:02:14;1.80;;;1.50;;
62616;SDS011;62539;51.190;6.808;2022-10-23T04:04:39;3.42;;;1.83;;
62616;SDS011;62539;51.190;6.808;2022-10-23T04:07:05;2.58;;;1.70;;
62616;SDS011;62539;51.190;6.808;2022-10-23T04:09:30;5.45;;;1.63;;
62616;SDS011;62539;51.190;6.808;2022-10-23T04:11:56;4.80;;;1.77;;
62616;SDS011;62539;51.190;6.808;2022-10-23T04:14:21;2.08;;;1.48;;
62616;SDS011;62539;51.190;6.808;2022-10-23T04:16:46;2.05;;;1.48;;
62616;SDS011;62539;51.190;6.808;2022-10-23T04:19:12;2.58;;;1.60;;
62616;SDS011;62539;51.190;6.808;2022-10-23T04:21:37;3.83;;;1.50;;
62616;SDS011;62539;51.190;6.808;2022-10-23T04:24:03;2.72;;;1.45;;
62616;SDS011;62539;51.190;6.808;2022-10-23T04:26:28;2.22;;;1.48;;
62616;SDS011;62539;51.190;6.808;2022-10-23T04:28:54;3.85;;;1.80;;
62616;SDS011;62539;51.190;6.808;2022-10-23T04:31:20;1.90;;;1.23;;
62616;SDS011;62539;51.190;6.808;2022-10-23T04:33:45;2.33;;;1.75;;
62616;SDS011;62539;51.190;6.808;2022-10-23T04:36:10;1.98;;;1.50;;
62616;SDS011;62539;51.190;6.808;2022-10-23T04:38:36;2.63;;;1.75;;
62616;SDS011;62539;51.190;6.808;2022-10-23T04:41:01;3.15;;;1.58;;
62616;SDS011;62539;51.190;6.808;2022-10-23T04:43:26;3.92;;;1.75;;
62616;SDS011;62539;51.190;6.808;2022-10-23T04:45:52;1.95;;;1.40;;
62616;SDS011;62539;51.190;6.808;2022-10-23T04:48:18;4.50;;;1.52;;
62616;SDS011;62539;51.190;6.808;2022-10-23T04:50:43;5.70;;;1.50;;
62616;SDS011;62539;51.190;6.808;2022-10-23T04:53:23;2.17;;;1.42;;
62616;SDS011;62539;51.190;6.808;2022-10-23T04:55:53;2.20;;;1.42;;
62616;SDS011;62539;51.190;6.808;2022-10-23T04:58:21;1.80;;;1.38;;
62616;SDS011;62539;51.190;6.808;2022-10-23T05:00:47;3.05;;;1.40;;
62616;SDS011;62539;51.190;6.808;2022-10-23T05:03:14;4.65;;;1.60;;
62616;SDS011;62539;51.190;6.808;2022-10-23T05:05:41;2.15;;;1.58;;
62616;SDS011;62539;51.190;6.808;2022-10-23T05:08:08;1.77;;;1.30;;
62616;SDS011;62539;51.190;6.808;2022-10-23T05:10:34;3.13;;;1.30;;
62616;SDS011;62539;51.190;6.808;2022-10-23T05:13:00;1.58;;;1.27;;
62616;SDS011;62539;51.190;6.808;2022-10-23T05:15:26;1.58;;;1.30;;
62616;SDS011;62539;51.190;6.808;2022-10-23T05:17:53;1.65;;;1.40;;
62616;SDS011;62539;51.190;6.808;2022-10-23T05:20:26;3.58;;;2.15;;
62616;SDS011;62539;51.190;6.808;2022-10-23T05:22:57;1.98;;;1.48;;
62616;SDS011;62539;51.190;6.808;2022-10-23T05:25:26;2.75;;;1.70;;
62616;SDS011;62539;51.190;6.808;2022-10-23T05:27:54;2.58;;;1.45;;
62616;SDS011;62539;51.190;6.808;2022-10-23T05:30:19;2.88;;;1.60;;
62616;SDS011;62539;51.190;6.808;2022-10-23T05:32:45;2.58;;;1.58;;
62616;SDS011;62539;51.190;6.808;2022-10-23T05:35:12;2.97;;;1.60;;
62616;SDS011;62539;51.190;6.808;2022-10-23T05:37:45;1.75;;;1.33;;
62616;SDS011;62539;51.190;6.808;2022-10-23T05:40:14;2.10;;;1.40;;
62616;SDS011;62539;51.190;6.808;2022-10-23T05:42:39;1.98;;;1.33;;
62616;SDS011;62539;51.190;6.808;2022-10-23T05:45:05;2.03;;;1.50;;
62616;SDS011;62539;51.190;6.808;2022-10-23T05:47:31;2.72;;;1.50;;
62616;SDS011;62539;51.190;6.808;2022-10-23T05:49:56;1.45;;;1.35;;
62616;SDS011;62539;51.190;6.808;2022-10-23T05:52:22;2.75;;;1.63;;
62616;SDS011;62539;51.190;6.808;2022-10-23T05:54:49;1.63;;;1.33;;
62616;SDS011;62539;51.190;6.808;2022-10-23T05:57:15;1.42;;;1.10;;
62616;SDS011;62539;51.190;6.808;2022-10-23T05:59:41;1.30;;;1.20;;
62616;SDS011;62539;51.190;6.808;2022-10-23T06:02:07;1.88;;;1.13;;
62616;SDS011;62539;51.190;6.808;2022-10-23T06:04:33;2.67;;;1.38;;
62616;SDS011;62539;51.190;6.808;2022-10-23T06:06:59;1.60;;;1.20;;
62616;SDS011;62539;51.190;6.808;2022-10-23T06:09:26;2.33;;;1.30;;
62616;SDS011;62539;51.190;6.808;2022-10-23T06:11:51;2.88;;;1.10;;
62616;SDS011;62539;51.190;6.808;2022-10-23T06:14:17;2.08;;;1.10;;
62616;SDS011;62539;51.190;6.808;2022-10-23T06:16:42;3.45;;;1.13;;
62616;SDS011;62539;51.190;6.808;2022-10-23T06:19:09;1.38;;;1.10;;
62616;SDS011;62539;51.190;6.808;2022-10-23T06:21:36;3.35;;;1.38;;
62616;SDS011;62539;51.190;6.808;2022-10-23T06:24:04;3.45;;;1.10;;
62616;SDS011;62539;51.190;6.808;2022-10-23T06:26:30;1.20;;;1.10;;
62616;SDS011;62539;51.190;6.808;2022-10-23T06:28:56;1.67;;;1.20;;
62616;SDS011;62539;51.190;6.808;2022-10-23T06:31:21;1.15;;;1.00;;
62616;SDS011;62539;51.190;6.808;2022-10-23T06:33:52;1.35;;;1.25;;
62616;SDS011;62539;51.190;6.808;2022-10-23T06:36:18;1.27;;;1.10;;
62616;SDS011;62539;51.190;6.808;2022-10-23T06:38:44;1.67;;;1.15;;
62616;SDS011;62539;51.190;6.808;2022-10-23T06:41:13;1.42;;;1.10;;
62616;SDS011;62539;51.190;6.808;2022-10-23T06:43:48;1.25;;;1.15;;
62616;SDS011;62539;51.190;6.808;2022-10-23T06:46:16;1.73;;;1.38;;
62616;SDS011;62539;51.190;6.808;2022-10-23T06:48:43;1.33;;;0.80;;
62616;SDS011;62539;51.190;6.808;2022-10-23T06:51:10;1.48;;;1.10;;
62616;SDS011;62539;51.190;6.808;2022-10-23T06:53:41;3.35;;;1.25;;
62616;SDS011;62539;51.190;6.808;2022-10-23T06:56:09;1.77;;;1.27;;
62616;SDS011;62539;51.190;6.808;2022-10-23T06:58:36;1.67;;;1.00;;
62616;SDS011;62539;51.190;6.808;2022-10-23T07:01:08;1.83;;;1.27;;
62616;SDS011;62539;51.190;6.808;2022-10-23T07:03:36;4.00;;;1.20;;
62616;SDS011;62539;51.190;6.808;2022-10-23T07:06:03;1.30;;;1.20;;
62616;SDS011;62539;51.190;6.808;2022-10-23T07:08:31;2.00;;;1.20;;
62616;SDS011;62539;51.190;6.808;2022-10-23T07:10:56;1.77;;;1.30;;
62616;SDS011;62539;51.190;6.808;2022-10-23T07:13:22;3.17;;;1.13;;
62616;SDS011;62539;51.190;6.808;2022-10-23T07:15:49;1.95;;;1.23;;
62616;SDS011;62539;51.190;6.808;2022-10-23T07:18:15;4.38;;;1.15;;
62616;SDS011;62539;51.190;6.808;2022-10-23T07:20:41;1.30;;;1.20;;
62616;SDS011;62539;51.190;6.808;2022-10-23T07:23:07;4.55;;;1.17;;
62616;SDS011;62539;51.190;6.808;2022-10-23T07:25:35;1.85;;;1.20;;
62616;SDS011;62539;51.190;6.808;2022-10-23T07:28:02;3.70;;;1.65;;
62616;SDS011;62539;51.190;6.808;2022-10-23T07:30:28;3.28;;;1.20;;
62616;SDS011;62539;51.190;6.808;2022-10-23T07:32:54;2.08;;;1.20;;
62616;SDS011;62539;51.190;6.808;2022-10-23T07:35:19;8.02;;;1.38;;
62616;SDS011;62539;51.190;6.808;2022-10-23T07:37:44;2.67;;;1.10;;
62616;SDS011;62539;51.190;6.808;2022-10-23T07:40:10;5.25;;;1.15;;
62616;SDS011;62539;51.190;6.808;2022-10-23T07:42:36;5.55;;;1.38;;
62616;SDS011;62539;51.190;6.808;2022-10-23T07:45:02;1.58;;;1.13;;
62616;SDS011;62539;51.190;6.808;2022-10-23T07:47:30;2.47;;;1.13;;
62616;SDS011;62539;51.190;6.808;2022-10-23T07:49:56;6.95;;;1.33;;
62616;SDS011;62539;51.190;6.808;2022-10-23T07:52:22;8.05;;;1.40;;
62616;SDS011;62539;51.190;6.808;2022-10-23T07:54:49;3.85;;;1.30;;
62616;SDS011;62539;51.190;6.808;2022-10-23T07:57:16;2.08;;;1.00;;
62616;SDS011;62539;51.190;6.808;2022-10-23T07:59:41;8.73;;;1.30;;
62616;SDS011;62539;51.190;6.808;2022-10-23T08:02:09;1.58;;;1.00;;
62616;SDS011;62539;51.190;6.808;2022-10-23T08:04:39;5.60;;;1.45;;
62616;SDS011;62539;51.190;6.808;2022-10-23T08:07:04;4.00;;;1.40;;
62616;SDS011;62539;51.190;6.808;2022-10-23T08:09:30;3.35;;;1.30;;
62616;SDS011;62539;51.190;6.808;2022-10-23T08:11:56;2.10;;;1.17;;
62616;SDS011;62539;51.190;6.808;2022-10-23T08:14:21;2.58;;;1.45;;
62616;SDS011;62539;51.190;6.808;2022-10-23T08:16:47;4.30;;;1.27;;
62616;SDS011;62539;51.190;6.808;2022-10-23T08:19:12;7.13;;;1.33;;
62616;SDS011;62539;51.190;6.808;2022-10-23T08:21:38;5.90;;;1.63;;
62616;SDS011;62539;51.190;6.808;2022-10-23T08:24:03;13.15;;;1.52;;
62616;SDS011;62539;51.190;6.808;2022-10-23T08:26:29;3.65;;;1.40;;
62616;SDS011;62539;51.190;6.808;2022-10-23T08:28:56;11.05;;;2.33;;
62616;SDS011;62539;51.190;6.808;2022-10-23T08:31:23;7.78;;;1.80;;
62616;SDS011;62539;51.190;6.808;2022-10-23T08:33:49;6.75;;;1.75;;
62616;SDS011;62539;51.190;6.808;2022-10-23T08:36:25;10.65;;;2.10;;
62616;SDS011;62539;51.190;6.808;2022-10-23T08:38:52;5.55;;;1.92;;
62616;SDS011;62539;51.190;6.808;2022-10-23T08:41:36;11.90;;;1.73;;
62616;SDS011;62539;51.190;6.808;2022-10-23T08:44:07;5.28;;;2.03;;
62616;SDS011;62539;51.190;6.808;2022-10-23T08:47:46;12.40;;;2.25;;
62616;SDS011;62539;51.190;6.808;2022-10-23T08:50:13;6.70;;;2.22;;
62616;SDS011;62539;51.190;6.808;2022-10-23T08:53:00;5.97;;;1.83;;
62616;SDS011;62539;51.190;6.808;2022-10-23T08:55:39;8.38;;;2.05;;
62616;SDS011;62539;51.190;6.808;2022-10-23T08:58:15;6.13;;;1.98;;
62616;SDS011;62539;51.190;6.808;2022-10-23T09:00:45;5.13;;;1.58;;
62616;SDS011;62539;51.190;6.808;2022-10-23T09:03:13;15.45;;;2.15;;
62616;SDS011;62539;51.190;6.808;2022-10-23T09:19:53;2.67;;;1.70;;
62616;SDS011;62539;51.190;6.808;2022-10-23T09:22:29;4.75;;;1.70;;
62616;SDS011;62539;51.190;6.808;2022-10-23T09:24:54;5.95;;;2.00;;
62616;SDS011;62539;51.190;6.808;2022-10-23T09:27:20;7.90;;;1.70;;
62616;SDS011;62539;51.190;6.808;2022-10-23T09:29:47;5.07;;;1.80;;
62616;SDS011;62539;51.190;6.808;2022-10-23T09:32:18;3.67;;;1.98;;
62616;SDS011;62539;51.190;6.808;2022-10-23T09:34:52;6.70;;;1.95;;
62616;SDS011;62539;51.190;6.808;2022-10-23T09:37:26;4.13;;;1.63;;
62616;SDS011;62539;51.190;6.808;2022-10-23T09:40:45;7.53;;;1.65;;
62616;SDS011;62539;51.190;6.808;2022-10-23T09:43:01;5.78;;;1.70;;
62616;SDS011;62539;51.190;6.808;2022-10-23T09:45:39;2.85;;;1.67;;
62616;SDS011;62539;51.190;6.808;2022-10-23T09:48:14;3.67;;;1.92;;
62616;SDS011;62539;51.190;6.808;2022-10-23T09:50:52;5.68;;;1.92;;
62616;SDS011;62539;51.190;6.808;2022-10-23T09:53:29;3.90;;;1.60;;
62616;SDS011;62539;51.190;6.808;2022-10-23T09:59:02;7.18;;;1.42;;
62616;SDS011;62539;51.190;6.808;2022-10-23T10:01:47;4.88;;;1.98;;
62616;SDS011;62539;51.190;6.808;2022-10-23T10:04:29;2.17;;;1.30;;
62616;SDS011;62539;51.190;6.808;2022-10-23T10:07:04;3.30;;;1.80;;
62616;SDS011;62539;51.190;6.808;2022-10-23T10:09:41;2.38;;;1.60;;
62616;SDS011;62539;51.190;6.808;2022-10-23T10:18:17;11.77;;;1.63;;
62616;SDS011;62539;51.190;6.808;2022-10-23T10:23:46;12.10;;;1.85;;
62616;SDS011;62539;51.190;6.808;2022-10-23T10:29:56;19.33;;;1.92;;
62616;SDS011;62539;51.190;6.808;2022-10-23T10:32:29;13.63;;;2.25;;
62616;SDS011;62539;51.190;6.808;2022-10-23T10:49:25;5.25;;;1.70;;
62616;SDS011;62539;51.190;6.808;2022-10-23T10:55:27;5.25;;;1.88;;
62616;SDS011;62539;51.190;6.808;2022-10-23T10:58:13;6.55;;;2.05;;
62616;SDS011;62539;51.190;6.808;2022-10-23T11:00:49;4.95;;;1.60;;
62616;SDS011;62539;51.190;6.808;2022-10-23T11:06:17;10.98;;;1.42;;
62616;SDS011;62539;51.190;6.808;2022-10-23T11:08:49;5.40;;;1.80;;
62616;SDS011;62539;51.190;6.808;2022-10-23T11:11:18;5.43;;;1.90;;
62616;SDS011;62539;51.190;6.808;2022-10-23T11:13:51;4.15;;;1.98;;
62616;SDS011;62539;51.190;6.808;2022-10-23T11:16:19;8.50;;;1.77;;
62616;SDS011;62539;51.190;6.808;2022-10-23T11:19:12;6.03;;;1.40;;
62616;SDS011;62539;51.190;6.808;2022-10-23T11:27:19;2.67;;;1.58;;
62616;SDS011;62539;51.190;6.808;2022-10-23T11:30:10;5.95;;;1.50;;
62616;SDS011;62539;51.190;6.808;2022-10-23T11:32:56;4.20;;;1.67;;
62616;SDS011;62539;51.190;6.808;2022-10-23T11:38:35;6.10;;;1.63;;
62616;SDS011;62539;51.190;6.808;2022-10-23T11:41:15;3.70;;;1.58;;
62616;SDS011;62539;51.190;6.808;2022-10-23T11:48:48;3.67;;;1.38;;
62616;SDS011;62539;51.190;6.808;2022-10-23T11:56:34;3.55;;;1.77;;
62616;SDS011;62539;51.190;6.808;2022-10-23T12:01:55;4.47;;;1.55;;
62616;SDS011;62539;51.190;6.808;2022-10-23T12:09:51;4.88;;;1.58;;
62616;SDS011;62539;51.190;6.808;2022-10-23T12:12:26;2.70;;;2.00;;
62616;SDS011;62539;51.190;6.808;2022-10-23T12:17:36;2.45;;;1.30;;
62616;SDS011;62539;51.190;6.808;2022-10-23T12:22:36;5.45;;;1.60;;
62616;SDS011;62539;51.190;6.808;2022-10-23T12:25:13;2.38;;;1.40;;
62616;SDS011;62539;51.190;6.808;2022-10-23T12:27:52;2.72;;;1.20;;
62616;SDS011;62539;51.190;6.808;2022-10-23T12:30:41;3.92;;;1.25;;
62616;SDS011;62539;51.190;6.808;2022-10-23T12:39:22;1.52;;;0.95;;
62616;SDS011;62539;51.190;6.808;2022-10-23T12:41:59;4.10;;;1.52;;
62616;SDS011;62539;51.190;6.808;2022-10-23T12:44:25;6.00;;;1.70;;
62616;SDS011;62539;51.190;6.808;2022-10-23T12:47:01;4.97;;;1.35;;
62616;SDS011;62539;51.190;6.808;2022-10-23T12:49:29;3.17;;;1.65;;
62616;SDS011;62539;51.190;6.808;2022-10-23T12:54:29;2.45;;;1.20;;
62616;SDS011;62539;51.190;6.808;2022-10-23T12:56:57;2.58;;;1.30;;
62616;SDS011;62539;51.190;6.808;2022-10-23T12:59:24;3.00;;;1.25;;
62616;SDS011;62539;51.190;6.808;2022-10-23T13:01:57;6.00;;;2.30;;
62616;SDS011;62539;51.190;6.808;2022-10-23T13:04:32;2.00;;;1.42;;
62616;SDS011;62539;51.190;6.808;2022-10-23T13:07:00;2.85;;;1.30;;
62616;SDS011;62539;51.190;6.808;2022-10-23T13:09:35;3.05;;;1.30;;
62616;SDS011;62539;51.190;6.808;2022-10-23T13:12:06;1.90;;;1.10;;
62616;SDS011;62539;51.190;6.808;2022-10-23T13:14:53;2.45;;;1.20;;
62616;SDS011;62539;51.190;6.808;2022-10-23T13:17:19;2.72;;;1.50;;
62616;SDS011;62539;51.190;6.808;2022-10-23T13:19:44;1.60;;;1.15;;
62616;SDS011;62539;51.190;6.808;2022-10-23T13:22:17;2.80;;;1.30;;
62616;SDS011;62539;51.190;6.808;2022-10-23T13:24:45;2.00;;;1.20;;
62616;SDS011;62539;51.190;6.808;2022-10-23T13:27:31;1.73;;;1.13;;
62616;SDS011;62539;51.190;6.808;2022-10-23T13:29:58;2.67;;;1.00;;
62616;SDS011;62539;51.190;6.808;2022-10-23T13:32:24;1.75;;;1.17;;
62616;SDS011;62539;51.190;6.808;2022-10-23T13:34:54;2.05;;;1.30;;
62616;SDS011;62539;51.190;6.808;2022-10-23T13:37:26;4.07;;;1.45;;
62616;SDS011;62539;51.190;6.808;2022-10-23T13:42:43;2.13;;;1.42;;
62616;SDS011;62539;51.190;6.808;2022-10-23T13:45:15;1.45;;;0.93;;
62616;SDS011;62539;51.190;6.808;2022-10-23T13:47:45;3.22;;;1.35;;
62616;SDS011;62539;51.190;6.808;2022-10-23T13:50:10;1.58;;;1.20;;
62616;SDS011;62539;51.190;6.808;2022-10-23T13:52:36;1.27;;;1.02;;
62616;SDS011;62539;51.190;6.808;2022-10-23T13:55:02;1.25;;;1.10;;
62616;SDS011;62539;51.190;6.808;2022-10-23T13:57:42;2.00;;;1.30;;
62616;SDS011;62539;51.190;6.808;2022-10-23T14:00:07;3.80;;;1.63;;
62616;SDS011;62539;51.190;6.808;2022-10-23T14:02:34;2.65;;;1.13;;
62616;SDS011;62539;51.190;6.808;2022-10-23T14:04:59;2.00;;;1.13;;
62616;SDS011;62539;51.190;6.808;2022-10-23T14:07:24;1.38;;;1.08;;
62616;SDS011;62539;51.190;6.808;2022-10-23T14:09:50;2.40;;;1.10;;
62616;SDS011;62539;51.190;6.808;2022-10-23T14:12:15;2.13;;;1.00;;
62616;SDS011;62539;51.190;6.808;2022-10-23T14:14:41;2.78;;;1.20;;
62616;SDS011;62539;51.190;6.808;2022-10-23T14:17:06;2.38;;;1.00;;
62616;SDS011;62539;51.190;6.808;2022-10-23T14:19:32;1.25;;;0.90;;
62616;SDS011;62539;51.190;6.808;2022-10-23T14:21:57;3.90;;;1.50;;
62616;SDS011;62539;51.190;6.808;2022-10-23T14:24:23;4.22;;;1.20;;
62616;SDS011;62539;51.190;6.808;2022-10-23T14:26:48;2.38;;;1.00;;
62616;SDS011;62539;51.190;6.808;2022-10-23T14:29:14;3.22;;;1.10;;
62616;SDS011;62539;51.190;6.808;2022-10-23T14:31:39;2.00;;;1.13;;
62616;SDS011;62539;51.190;6.808;2022-10-23T14:34:04;1.92;;;1.10;;
62616;SDS011;62539;51.190;6.808;2022-10-23T14:36:30;3.13;;;1.20;;
62616;SDS011;62539;51.190;6.808;2022-10-23T14:38:56;2.75;;;1.10;;
62616;SDS011;62539;51.190;6.808;2022-10-23T14:41:22;2.88;;;1.08;;
62616;SDS011;62539;51.190;6.808;2022-10-23T14:43:50;1.30;;;1.02;;
62616;SDS011;62539;51.190;6.808;2022-10-23T14:46:17;1.50;;;1.27;;
62616;SDS011;62539;51.190;6.808;2022-10-23T14:48:45;1.13;;;1.02;;
62616;SDS011;62539;51.190;6.808;2022-10-23T14:51:18;2.50;;;1.10;;
62616;SDS011;62539;51.190;6.808;2022-10-23T14:53:47;1.40;;;1.00;;
62616;SDS011;62539;51.190;6.808;2022-10-23T14:56:19;1.58;;;1.00;;
62616;SDS011;62539;51.190;6.808;2022-10-23T14:58:44;1.48;;;1.10;;
62616;SDS011;62539;51.190;6.808;2022-10-23T15:01:09;1.80;;;1.30;;
62616;SDS011;62539;51.190;6.808;2022-10-23T15:03:35;1.15;;;0.90;;
62616;SDS011;62539;51.190;6.808;2022-10-23T15:06:00;1.50;;;1.00;;
62616;SDS011;62539;51.190;6.808;2022-10-23T15:08:26;2.20;;;0.90;;
62616;SDS011;62539;51.190;6.808;2022-10-23T15:10:51;1.77;;;1.10;;
62616;SDS011;62539;51.190;6.808;2022-10-23T15:13:17;3.28;;;0.98;;
62616;SDS011;62539;51.190;6.808;2022-10-23T15:15:43;1.33;;;0.95;;
62616;SDS011;62539;51.190;6.808;2022-10-23T15:18:09;1.35;;;1.00;;
62616;SDS011;62539;51.190;6.808;2022-10-23T15:20:34;2.05;;;1.10;;
62616;SDS011;62539;51.190;6.808;2022-10-23T15:22:59;1.60;;;1.10;;
62616;SDS011;62539;51.190;6.808;2022-10-23T15:25:26;2.08;;;0.98;;
62616;SDS011;62539;51.190;6.808;2022-10-23T15:27:52;1.30;;;1.00;;
62616;SDS011;62539;51.190;6.808;2022-10-23T15:30:17;1.25;;;1.15;;
62616;SDS011;62539;51.190;6.808;2022-10-23T15:32:43;1.40;;;1.10;;
62616;SDS011;62539;51.190;6.808;2022-10-23T15:35:08;7.60;;;1.23;;
62616;SDS011;62539;51.190;6.808;2022-10-23T15:37:34;7.38;;;1.20;;
62616;SDS011;62539;51.190;6.808;2022-10-23T15:39:59;5.30;;;1.25;;
62616;SDS011;62539;51.190;6.808;2022-10-23T15:42:24;7.32;;;1.50;;
62616;SDS011;62539;51.190;6.808;2022-10-23T15:44:50;2.33;;;1.30;;
62616;SDS011;62539;51.190;6.808;2022-10-23T15:47:15;5.13;;;1.45;;
62616;SDS011;62539;51.190;6.808;2022-10-23T15:49:41;5.68;;;1.20;;
62616;SDS011;62539;51.190;6.808;2022-10-23T15:52:06;7.40;;;1.23;;
62616;SDS011;62539;51.190;6.808;2022-10-23T15:54:33;3.15;;;1.10;;
62616;SDS011;62539;51.190;6.808;2022-10-23T15:56:59;2.25;;;1.00;;
62616;SDS011;62539;51.190;6.808;2022-10-23T15:59:26;2.58;;;1.20;;
62616;SDS011;62539;51.190;6.808;2022-10-23T16:01:55;3.28;;;1.50;;
62616;SDS011;62539;51.190;6.808;2022-10-23T16:04:21;17.75;;;2.22;;
62616;SDS011;62539;51.190;6.808;2022-10-23T16:06:47;3.60;;;1.65;;
62616;SDS011;62539;51.190;6.808;2022-10-23T16:09:13;4.63;;;1.90;;
62616;SDS011;62539;51.190;6.808;2022-10-23T16:11:40;5.38;;;1.70;;
62616;SDS011;62539;51.190;6.808;2022-10-23T16:14:08;4.20;;;2.10;;
62616;SDS011;62539;51.190;6.808;2022-10-23T16:16:41;6.75;;;2.20;;
62616;SDS011;62539;51.190;6.808;2022-10-23T16:19:06;7.75;;;2.05;;
62616;SDS011;62539;51.190;6.808;2022-10-23T16:21:34;10.80;;;1.95;;
62616;SDS011;62539;51.190;6.808;2022-10-23T16:24:02;6.20;;;2.10;;
62616;SDS011;62539;51.190;6.808;2022-10-23T16:26:30;7.80;;;2.13;;
62616;SDS011;62539;51.190;6.808;2022-10-23T16:28:58;5.45;;;2.17;;
62616;SDS011;62539;51.190;6.808;2022-10-23T16:31:27;7.32;;;2.25;;
62616;SDS011;62539;51.190;6.808;2022-10-23T16:33:55;5.07;;;2.15;;
62616;SDS011;62539;51.190;6.808;2022-10-23T16:36:22;11.02;;;2.47;;
62616;SDS011;62539;51.190;6.808;2022-10-23T16:38:49;10.43;;;2.42;;
62616;SDS011;62539;51.190;6.808;2022-10-23T16:41:14;10.43;;;2.42;;
62616;SDS011;62539;51.190;6.808;2022-10-23T16:43:39;12.73;;;2.40;;
62616;SDS011;62539;51.190;6.808;2022-10-23T16:46:15;8.63;;;2.25;;
62616;SDS011;62539;51.190;6.808;2022-10-23T16:48:44;7.43;;;2.75;;
62616;SDS011;62539;51.190;6.808;2022-10-23T16:51:11;7.95;;;2.05;;
62616;SDS011;62539;51.190;6.808;2022-10-23T16:53:43;6.47;;;1.95;;
62616;SDS011;62539;51.190;6.808;2022-10-23T16:56:10;7.22;;;2.30;;
62616;SDS011;62539;51.190;6.808;2022-10-23T16:58:39;7.30;;;2.15;;
62616;SDS011;62539;51.190;6.808;2022-10-23T17:03:44;5.05;;;1.98;;
62616;SDS011;62539;51.190;6.808;2022-10-23T17:06:13;5.05;;;2.08;;
62616;SDS011;62539;51.190;6.808;2022-10-23T17:08:43;4.47;;;1.73;;
62616;SDS011;62539;51.190;6.808;2022-10-23T17:11:10;7.05;;;1.75;;
62616;SDS011;62539;51.190;6.808;2022-10-23T17:13:44;8.32;;;2.08;;
62616;SDS011;62539;51.190;6.808;2022-10-23T17:16:15;6.35;;;2.00;;
62616;SDS011;62539;51.190;6.808;2022-10-23T17:18:49;7.10;;;2.10;;